Terminal Aerodrome Forecast
Issued by NWS

Home | Current Version | Previous Version | Text Only | Print | Product List | Glossary On
Versions: 1 2 3 4 5 6 7 8 9 10 11 12 13 14 15 16 17 18 19 20 21 22 23 24 25 26 27 28 29 30
000
FTUS42 KCAE 232300 CCA
TAFCUB
TAF COR
KCUB 232356Z 2400/2424 VRB04KT P6SM SKC
      TEMPO 2400/2401 6SM FU
     FM240200 03005KT P6SM SKC
     FM241700 14005KT P6SM SKC=

USA.gov is the U.S. government's official web portal to all federal, state and local government web resources and services.